Rechercher aéroport 
image banner adimage banner adimage banner ad
image banner ad

CL81 - Camp 15

Situé à Sunland, United States

ICAO - CL81, IATA -

Données fournies par Airmate  

Information générale

Coordonnées: N34°17'22" W118°17'17"
Élévation : 1520 feet MSL.
Variation magnétique : 14° East
Voir autres Aéroports à California

Données opérationnelles

Special qualification required
Heure actuelle UTC:
Heure actuelle locale:
Météo à : KBUR - Bob Hope ( 12 km )
METAR: KBUR 251053Z 13004KT 10SM CLR 19/16 A2996 RMK AO2 SLP133 T01890156 $
TAF: KBUR 250938Z 2510/2606 14005KT P6SM BKN140 FM251200 VRB03KT 4SM BR BKN007 OVC140 FM251600 15004KT P6SM BKN100 OVC140 FM252100 18010KT P6SM BKN100 OVC140 FM260400 15004KT P6SM BKN100 OVC140
Voir NOTAMs / SUP AIP / TFR affectant cet aéroport [VIEW]
Fréquences de communication: [VIEW]

Pistes:

Coordonnées de l'aéroport

Adresse: Sunland United States

Vue satellite de CL81